createdAt,value
2022-08-29T00:00:16.580Z,100315.44
2022-08-29T00:05:42.834Z,100308.69
2022-08-29T00:10:56.297Z,100307.59
2022-08-29T00:16:02.334Z,100310.56
2022-08-29T00:21:08.810Z,100308.16
2022-08-29T00:26:15.044Z,100301.14
2022-08-29T00:31:21.029Z,100298.46
2022-08-29T00:36:27.101Z,100295.02
2022-08-29T00:41:36.500Z,100296.99
2022-08-29T00:46:54.247Z,100296.54
2022-08-29T00:52:05.439Z,100296.96
2022-08-29T00:57:11.917Z,100297.30
2022-08-29T01:02:19.175Z,100301.02
2022-08-29T01:07:25.280Z,100301.24
2022-08-29T01:12:31.375Z,100293.08
2022-08-29T01:17:43.933Z,100289.24
2022-08-29T01:22:59.051Z,100286.63
2022-08-29T01:28:12.031Z,100295.58
2022-08-29T01:33:18.039Z,100299.02
2022-08-29T01:38:29.967Z,100300.16
2022-08-29T01:43:42.412Z,100301.24
2022-08-29T01:48:48.989Z,100290.45
2022-08-29T01:53:55.265Z,100285.36
2022-08-29T01:59:03.726Z,100283.14
2022-08-29T02:04:10.030Z,100286.35
2022-08-29T02:09:16.070Z,100289.84
2022-08-29T02:14:23.585Z,100282.13
2022-08-29T02:19:29.543Z,100291.29
2022-08-29T02:24:35.924Z,100292.95
2022-08-29T02:29:42.117Z,100305.19
2022-08-29T02:34:48.546Z,100308.91
2022-08-29T02:39:54.831Z,100316.62
2022-08-29T02:45:01.258Z,100319.88
2022-08-29T02:50:09.664Z,100326.11
2022-08-29T02:55:18.329Z,100324.69
2022-08-29T03:00:27.386Z,100331.98
2022-08-29T03:06:53.654Z,100337.36
2022-08-29T03:11:59.571Z,100336.17
2022-08-29T03:17:05.809Z,100341.36
2022-08-29T03:22:11.849Z,100337.30
2022-08-29T03:27:19.088Z,100343.34
2022-08-29T03:32:25.840Z,100349.34
2022-08-29T03:37:32.727Z,100349.46
2022-08-29T03:42:38.893Z,100353.73
2022-08-29T03:47:44.899Z,100356.27
2022-08-29T03:52:51.531Z,100360.16
2022-08-29T03:57:57.665Z,100359.88
2022-08-29T04:03:03.912Z,100360.13
2022-08-29T04:08:09.985Z,100365.63
2022-08-29T04:13:15.883Z,100371.82
2022-08-29T04:18:22.555Z,100371.80
2022-08-29T04:23:28.423Z,100374.10
2022-08-29T04:28:34.402Z,100382.14
2022-08-29T04:33:41.165Z,100386.42
2022-08-29T04:38:47.066Z,100386.39
2022-08-29T04:43:53.547Z,100388.17
2022-08-29T04:49:03.969Z,100386.75
2022-08-29T04:54:10.474Z,100388.47
2022-08-29T04:59:17.105Z,100392.35
2022-08-29T05:04:25.278Z,100394.67
2022-08-29T05:09:31.213Z,100394.09
2022-08-29T05:14:51.496Z,100397.90
2022-08-29T05:20:39.971Z,100398.30
2022-08-29T05:32:18.519Z,100401.73
2022-08-29T05:38:19.429Z,100400.71
2022-08-29T05:43:54.468Z,100406.25
2022-08-29T06:01:08.025Z,100422.76
2022-08-29T06:06:14.122Z,100428.80
2022-08-29T06:11:22.613Z,100432.84
2022-08-29T06:16:29.857Z,100433.81
2022-08-29T06:21:35.861Z,100438.13
2022-08-29T06:26:42.869Z,100441.79
2022-08-29T06:32:07.325Z,100444.62
2022-08-29T06:37:13.481Z,100452.80
2022-08-29T06:42:23.913Z,100462.31
2022-08-29T06:47:34.555Z,100471.97
2022-08-29T06:52:40.553Z,100475.64
2022-08-29T06:57:47.034Z,100485.39
2022-08-29T07:02:53.780Z,100493.91
2022-08-29T07:07:59.745Z,100499.64
2022-08-29T07:13:05.597Z,100503.41
2022-08-29T07:18:11.935Z,100500.30
2022-08-29T07:23:18.263Z,100503.42
2022-08-29T07:28:24.190Z,100509.98
2022-08-29T07:33:30.166Z,100511.67
2022-08-29T07:38:36.541Z,100518.05
2022-08-29T07:43:43.449Z,100527.08
2022-08-29T07:48:49.530Z,100535.36
2022-08-29T07:53:56.812Z,100540.36
2022-08-29T07:59:02.666Z,100546.50
2022-08-29T08:04:11.045Z,100547.23
2022-08-29T08:09:17.009Z,100546.95
2022-08-29T08:14:22.888Z,100552.02
2022-08-29T08:19:40.865Z,100555.32
2022-08-29T08:24:48.557Z,100559.69
2022-08-29T08:29:55.557Z,100560.52
2022-08-29T08:35:04.529Z,100568.42
2022-08-29T08:40:19.816Z,100574.85
2022-08-29T08:45:33.476Z,100581.77
2022-08-29T08:50:54.513Z,100583.81
2022-08-29T08:56:04.873Z,100591.55
2022-08-29T09:01:18.758Z,100594.48
2022-08-29T09:06:37.887Z,100597.02
2022-08-29T09:11:56.362Z,100595.95
2022-08-29T09:17:04.108Z,100605.61
2022-08-29T09:22:16.595Z,100608.55
2022-08-29T09:27:24.278Z,100612.98
2022-08-29T09:32:30.198Z,100608.56
2022-08-29T09:37:36.915Z,100609.18
2022-08-29T09:42:49.731Z,100608.14
2022-08-29T09:48:14.393Z,100610.96
2022-08-29T09:53:25.478Z,100610.04
2022-08-29T09:58:39.929Z,100605.70
2022-08-29T10:03:58.577Z,100611.52
2022-08-29T10:09:09.175Z,100615.77
2022-08-29T10:14:23.511Z,100619.26
2022-08-29T10:19:33.129Z,100611.24
2022-08-29T10:24:57.826Z,100618.86
2022-08-29T10:30:12.508Z,100622.21
2022-08-29T10:35:24.469Z,100612.83
2022-08-29T10:40:43.226Z,100607.65
2022-08-29T10:46:04.070Z,100619.56
2022-08-29T10:51:21.558Z,100616.18
2022-08-29T10:56:33.007Z,100623.29
2022-08-29T11:01:43.988Z,100626.08
2022-08-29T11:06:58.195Z,100625.11
2022-08-29T11:12:12.510Z,100623.98
2022-08-29T11:17:26.338Z,100622.11
2022-08-29T11:22:37.693Z,100620.78
2022-08-29T11:27:53.604Z,100617.23
2022-08-29T11:33:14.888Z,100618.88
2022-08-29T11:38:49.780Z,100615.69
2022-08-29T11:44:05.541Z,100621.63
2022-08-29T11:49:41.977Z,100621.67
2022-08-29T11:55:09.861Z,100624.98
2022-08-29T12:00:42.669Z,100629.90
2022-08-29T12:06:01.716Z,100628.23
2022-08-29T12:11:07.724Z,100623.37
2022-08-29T12:16:15.687Z,100625.95
2022-08-29T12:21:47.177Z,100628.84
2022-08-29T12:26:54.835Z,100623.98
2022-08-29T12:32:43.226Z,100630.27
2022-08-29T12:38:01.469Z,100633.90
2022-08-29T12:43:29.446Z,100630.41
2022-08-29T12:48:41.158Z,100636.36
2022-08-29T12:53:50.725Z,100637.25
2022-08-29T12:58:58.993Z,100639.20
2022-08-29T13:04:13.510Z,100639.73
2022-08-29T13:09:28.254Z,100641.70
2022-08-29T13:14:36.118Z,100646.69
2022-08-29T13:20:04.647Z,100648.16
2022-08-29T13:25:10.791Z,100647.62
2022-08-29T13:30:24.755Z,100642.20
2022-08-29T13:35:33.053Z,100638.00
2022-08-29T13:40:45.638Z,100637.63
2022-08-29T13:46:00.823Z,100632.59
2022-08-29T13:51:07.272Z,100622.36
2022-08-29T13:56:23.235Z,100622.89
2022-08-29T14:01:29.842Z,100622.18
2022-08-29T14:06:36.726Z,100622.15
2022-08-29T14:11:45.242Z,100628.50
2022-08-29T14:16:53.688Z,100628.16
2022-08-29T14:22:00.653Z,100632.77
2022-08-29T14:27:08.521Z,100631.69
2022-08-29T14:32:14.444Z,100640.33
2022-08-29T14:37:20.924Z,100635.63
2022-08-29T14:42:27.168Z,100636.34
2022-08-29T14:47:33.563Z,100634.40
2022-08-29T14:52:39.739Z,100631.95
2022-08-29T14:57:45.653Z,100631.85
2022-08-29T15:02:52.411Z,100635.31
2022-08-29T15:08:00.720Z,100637.17
2022-08-29T15:13:10.486Z,100637.75
2022-08-29T15:18:42.788Z,100634.40
2022-08-29T15:23:44.686Z,100633.52
2022-08-29T15:28:50.626Z,100636.99
2022-08-29T15:33:56.534Z,100636.20
2022-08-29T15:39:05.820Z,100632.52
2022-08-29T15:44:12.063Z,100625.23
2022-08-29T15:49:18.743Z,100632.17
2022-08-29T15:54:26.001Z,100627.27
2022-08-29T15:59:56.720Z,100624.97
2022-08-29T16:04:59.984Z,100632.14
2022-08-29T16:10:11.149Z,100633.58
2022-08-29T16:15:18.297Z,100633.09
2022-08-29T16:20:24.099Z,100631.04
2022-08-29T16:25:31.258Z,100632.71
2022-08-29T16:30:44.251Z,100635.39
2022-08-29T16:35:52.297Z,100635.79
2022-08-29T16:41:05.054Z,100637.05
2022-08-29T16:46:12.291Z,100640.41
2022-08-29T16:51:19.001Z,100639.79
2022-08-29T16:56:25.150Z,100637.82
2022-08-29T17:01:33.254Z,100638.00
2022-08-29T17:06:39.712Z,100645.21
2022-08-29T17:11:45.991Z,100648.48
2022-08-29T17:16:54.037Z,100652.95
2022-08-29T17:22:00.014Z,100659.63
2022-08-29T17:27:06.001Z,100664.07
2022-08-29T17:32:24.126Z,100663.84
2022-08-29T17:37:36.430Z,100661.52
2022-08-29T17:43:16.504Z,100662.08
2022-08-29T17:48:33.896Z,100667.45
2022-08-29T17:53:45.828Z,100667.48
2022-08-29T17:59:05.930Z,100666.49
2022-08-29T18:04:20.668Z,100679.84
2022-08-29T18:09:26.730Z,100683.02
2022-08-29T18:14:33.654Z,100682.43
2022-08-29T18:19:40.003Z,100686.39
2022-08-29T18:24:48.934Z,100691.83
2022-08-29T18:29:55.409Z,100690.22
2022-08-29T18:50:36.462Z,100702.58
2022-08-29T18:55:51.222Z,100705.30
2022-08-29T19:00:59.560Z,100704.88
2022-08-29T19:06:05.866Z,100705.13
2022-08-29T19:11:11.881Z,100710.11
2022-08-29T19:16:19.488Z,100710.59
2022-08-29T19:21:26.188Z,100711.55
2022-08-29T19:26:38.010Z,100713.45
2022-08-29T19:31:46.363Z,100714.38
2022-08-29T19:36:52.168Z,100721.59
2022-08-29T19:41:58.245Z,100721.64
2022-08-29T19:47:04.526Z,100724.03
2022-08-29T19:52:10.918Z,100722.29
2022-08-29T19:57:16.997Z,100728.26
2022-08-29T20:02:22.960Z,100729.02
2022-08-29T20:07:29.260Z,100730.37
2022-08-29T20:12:37.942Z,100731.80
2022-08-29T20:17:44.864Z,100731.92
2022-08-29T20:22:51.377Z,100736.78
2022-08-29T20:27:57.500Z,100741.00
2022-08-29T20:33:04.674Z,100742.93
2022-08-29T20:38:12.604Z,100741.26
2022-08-29T20:43:19.662Z,100747.31
2022-08-29T20:48:31.091Z,100752.57
2022-08-29T20:53:38.562Z,100757.77
2022-08-29T20:58:45.459Z,100758.94
2022-08-29T21:04:10.385Z,100757.52
2022-08-29T21:09:16.347Z,100761.19
2022-08-29T21:14:22.847Z,100772.35
2022-08-29T21:19:29.988Z,100782.32
2022-08-29T21:24:36.131Z,100780.76
2022-08-29T21:29:43.585Z,100778.29
2022-08-29T21:34:49.546Z,100775.98
2022-08-29T21:39:55.404Z,100783.51
2022-08-29T21:45:01.725Z,100785.04
2022-08-29T21:50:08.933Z,100787.52
2022-08-29T21:55:15.721Z,100788.66
2022-08-29T22:00:25.049Z,100792.03
2022-08-29T22:05:31.639Z,100796.41
2022-08-29T22:10:38.876Z,100800.08
2022-08-29T22:16:03.995Z,100802.36
2022-08-29T22:21:15.187Z,100809.44
2022-08-29T22:26:21.890Z,100809.05
2022-08-29T22:31:28.115Z,100815.09
2022-08-29T22:36:34.876Z,100812.71
2022-08-29T22:41:44.199Z,100810.90
2022-08-29T22:46:54.014Z,100811.90
2022-08-29T22:52:00.394Z,100812.63
2022-08-29T22:57:09.089Z,100814.42
2022-08-29T23:02:16.303Z,100805.81
2022-08-29T23:07:22.283Z,100803.52
2022-08-29T23:12:28.658Z,100801.80
2022-08-29T23:17:34.552Z,100804.21
2022-08-29T23:22:42.877Z,100804.20
2022-08-29T23:27:48.949Z,100805.55
2022-08-29T23:32:54.866Z,100802.58
2022-08-29T23:38:00.722Z,100801.67
2022-08-29T23:43:07.312Z,100797.70
2022-08-29T23:48:13.283Z,100800.39
2022-08-29T23:53:19.977Z,100800.39
2022-08-29T23:58:25.779Z,100799.48
